Main page
METAR-TAF:

METAR-TAF

Airports :

Santa Maria Airport

Aracaju, Sergipe, Brazil

latitude: 10-59S, longitude: 037-04W, elevation: 8 m

Current weather observation

The report was made 38 minutes ago, at 03:00 UTC
Wind 10 kt from the East
Temperature 25°C
Humidity 74%
Pressure 1021 hPa
Visibility 10 km or more
Scattered clouds at a height of 1800 ft

METAR: SBAR 170300Z 09010KT 9999 SCT018 25/20 Q1021

Time: 00:38 (03:38 UTC)

Forecast

The report was made 5 hours and 38 minutes ago, at 22:00 UTC
Forecast valid from 17 at 00 UTC to 17 at 12 UTC
Wind 8 kt from the East
Visibility 10 km or more
Scattered clouds at a height of 1700 ft

TAF: SBAR 162200Z 1700/1712 09008KT 9999 SCT017 TN24/1709Z TX26/1711Z RMK PCH

Weather observations and forecasts of more than 4000 airports (METAR and TAF reports).

The available stations are represented by yellow and red dots on the map.

Hover mouse over dot to see the name of the station.

Then click to see weather observations and forecasts.

To change the map : click on the green buttons with a black cross to zoom in, on the green button with a dash to zoom out, or on the green arrows for adjacent maps.


METAR-TAF: